Time;durP1;ratioP1;P1;durP2;ratioP2;P2;SDS_P1;SDS_P2;PMS_P1;PMS_P2;Temp;Humidity;BMP_temperature;BMP_pressure;BME280_temperature;BME280_humidity;BME280_pressure;Samples;Min_cycle;Max_cycle;Signal;HPM_P1;HPM_P2
2022/04/15 00:01:28;;;;;;;2.47;2.27;;;12.50;74.80;;;;;;939346;148;27391;-75
2022/04/15 00:03:58;;;;;;;2.40;2.20;;;12.50;75.00;;;;;;939373;148;27337;-75
2022/04/15 00:06:22;;;;;;;2.63;2.43;;;12.40;75.30;;;;;;935422;148;27329;-75
2022/04/15 00:08:48;;;;;;;2.40;2.20;;;12.40;75.50;;;;;;937779;148;27378;-75
2022/04/15 00:11:15;;;;;;;2.33;2.13;;;12.30;75.70;;;;;;937646;148;27348;-75
2022/04/15 00:13:41;;;;;;;2.30;2.10;;;12.20;76.00;;;;;;935629;148;27281;-75
2022/04/15 00:16:07;;;;;;;2.20;2.00;;;12.20;75.70;;;;;;938468;148;27411;-75
2022/04/15 00:18:34;;;;;;;2.23;2.03;;;12.20;76.70;;;;;;938815;148;27339;-75
2022/04/15 00:21:01;;;;;;;2.47;2.27;;;12.10;76.60;;;;;;939195;148;27667;-75
2022/04/15 00:23:27;;;;;;;2.53;2.10;;;12.10;76.80;;;;;;936421;148;27374;-75
2022/04/15 00:25:54;;;;;;;2.23;1.83;;;12.10;77.00;;;;;;938404;148;27358;-75
2022/04/15 00:28:20;;;;;;;2.50;2.30;;;12.10;77.10;;;;;;940038;148;27391;-75
2022/04/15 00:30:47;;;;;;;2.57;2.10;;;12.00;77.10;;;;;;939380;148;27401;-75
2022/04/15 00:33:14;;;;;;;2.73;2.37;;;12.00;77.30;;;;;;939349;148;27350;-75
2022/04/15 00:35:40;;;;;;;2.23;2.03;;;12.00;77.50;;;;;;937241;148;27731;-75
2022/04/15 00:38:07;;;;;;;2.13;2.00;;;11.90;77.40;;;;;;937189;148;27354;-75
2022/04/15 00:40:33;;;;;;;1.83;1.70;;;11.90;77.70;;;;;;935334;148;27624;-75
2022/04/15 00:43:00;;;;;;;1.90;1.80;;;11.80;77.70;;;;;;932579;149;27400;-75
2022/04/15 00:45:26;;;;;;;2.40;2.20;;;11.80;77.80;;;;;;932576;149;27336;-75
2022/04/15 00:47:53;;;;;;;3.07;2.00;;;11.80;78.00;;;;;;933673;149;27370;-75
2022/04/15 00:50:22;;;;;;;2.70;1.80;;;11.70;78.20;;;;;;935012;149;27334;-75
2022/04/15 00:52:49;;;;;;;2.40;2.20;;;11.70;78.20;;;;;;931149;149;27372;-76
2022/04/15 00:55:16;;;;;;;3.43;2.20;;;11.70;78.40;;;;;;933213;149;27308;-75
2022/04/15 00:57:42;;;;;;;3.13;2.27;;;11.60;78.60;;;;;;934909;149;27358;-75
2022/04/15 01:00:09;;;;;;;2.43;2.23;;;11.60;78.80;;;;;;931840;149;27372;-75
2022/04/15 01:02:35;;;;;;;2.53;2.33;;;11.60;78.90;;;;;;931495;149;27418;-75
2022/04/15 01:05:02;;;;;;;2.93;2.03;;;11.50;79.00;;;;;;932646;149;27285;-75
2022/04/15 01:07:28;;;;;;;2.00;1.90;;;11.50;79.00;;;;;;935105;149;27407;-75
2022/04/15 01:09:55;;;;;;;2.43;2.23;;;11.40;78.20;;;;;;933876;149;27301;-75
2022/04/15 01:12:22;;;;;;;2.00;1.90;;;11.40;78.90;;;;;;935491;149;27352;-75
2022/04/15 01:14:48;;;;;;;2.63;2.30;;;11.40;79.00;;;;;;936254;149;27345;-75
2022/04/15 01:17:15;;;;;;;2.13;1.93;;;11.30;79.10;;;;;;934792;149;27349;-75
2022/04/15 01:19:41;;;;;;;2.27;2.07;;;11.30;79.20;;;;;;935244;149;27410;-75
2022/04/15 01:22:08;;;;;;;2.20;2.10;;;11.20;79.40;;;;;;934832;149;27326;-75
2022/04/15 01:24:38;;;;;;;1.90;1.80;;;11.20;79.70;;;;;;935667;149;27400;-75
2022/04/15 01:27:01;;;;;;;2.13;2.03;;;11.10;79.70;;;;;;933674;149;27431;-75
2022/04/15 01:29:28;;;;;;;2.30;2.03;;;11.10;79.80;;;;;;936162;149;27448;-75
2022/04/15 01:31:54;;;;;;;2.40;2.20;;;11.00;80.00;;;;;;933051;149;27424;-75
2022/04/15 01:34:21;;;;;;;2.67;2.40;;;11.00;80.00;;;;;;934563;149;27292;-75
2022/04/15 01:36:48;;;;;;;3.60;2.43;;;10.90;80.90;;;;;;933505;149;27336;-75
2022/04/15 01:39:14;;;;;;;2.30;2.10;;;10.90;80.30;;;;;;936804;149;27368;-75
2022/04/15 01:41:41;;;;;;;3.17;2.40;;;10.90;80.50;;;;;;933640;149;27414;-75
2022/04/15 01:44:08;;;;;;;2.63;2.43;;;10.80;80.70;;;;;;935764;149;27432;-75
2022/04/15 01:46:34;;;;;;;2.80;2.47;;;10.80;81.10;;;;;;933350;149;27296;-75
2022/04/15 01:49:00;;;;;;;2.60;2.40;;;10.70;81.30;;;;;;934012;149;27372;-75
2022/04/15 01:51:27;;;;;;;2.47;2.30;;;10.70;81.60;;;;;;935413;149;27415;-75
2022/04/15 01:53:55;;;;;;;2.50;2.30;;;10.70;81.70;;;;;;932944;149;27521;-75
2022/04/15 01:56:20;;;;;;;2.67;2.47;;;10.70;81.70;;;;;;935152;149;28575;-75
2022/04/15 01:58:47;;;;;;;3.00;2.70;;;10.60;81.90;;;;;;934304;149;27265;-75
2022/04/15 02:01:13;;;;;;;2.83;2.57;;;10.60;81.90;;;;;;935727;149;27453;-75
2022/04/15 02:03:40;;;;;;;2.17;2.00;;;10.60;81.90;;;;;;935609;149;27346;-75
2022/04/15 02:06:07;;;;;;;2.67;2.47;;;10.60;82.10;;;;;;933242;149;27371;-75
2022/04/15 02:08:33;;;;;;;4.63;4.23;;;10.50;82.10;;;;;;935422;149;27382;-75
2022/04/15 02:11:00;;;;;;;3.10;2.90;;;10.50;82.30;;;;;;933445;149;27291;-74
2022/04/15 02:13:26;;;;;;;3.73;2.87;;;10.50;82.60;;;;;;936166;149;27424;-74
2022/04/15 02:15:53;;;;;;;2.70;2.50;;;10.50;82.80;;;;;;934998;149;27381;-74
2022/04/15 02:18:20;;;;;;;2.90;2.70;;;10.40;82.80;;;;;;935788;149;27374;-74
2022/04/15 02:20:46;;;;;;;3.43;2.80;;;10.40;82.80;;;;;;934854;149;27322;-74
2022/04/15 02:23:13;;;;;;;3.87;2.90;;;10.30;82.90;;;;;;936081;149;27428;-75
2022/04/15 02:25:39;;;;;;;3.27;2.63;;;10.30;83.10;;;;;;933300;149;27336;-75
2022/04/15 02:28:06;;;;;;;3.20;2.90;;;10.30;83.20;;;;;;934613;149;27422;-75
2022/04/15 02:30:32;;;;;;;3.27;2.97;;;10.30;83.40;;;;;;935988;149;27981;-75
2022/04/15 02:32:59;;;;;;;3.10;2.57;;;10.20;83.60;;;;;;935312;149;27345;-75
2022/04/15 02:35:26;;;;;;;2.50;2.30;;;10.20;83.50;;;;;;932651;149;27330;-75
2022/04/15 02:37:52;;;;;;;3.13;2.90;;;10.20;83.50;;;;;;934732;149;27416;-75
2022/04/15 02:40:19;;;;;;;4.43;3.10;;;10.10;83.40;;;;;;935527;149;27366;-75
2022/04/15 02:42:45;;;;;;;2.83;2.63;;;10.10;83.50;;;;;;935257;149;27505;-75
2022/04/15 02:45:12;;;;;;;3.23;2.93;;;10.10;83.70;;;;;;934924;149;27366;-75
2022/04/15 02:47:39;;;;;;;3.03;2.83;;;10.00;83.70;;;;;;932751;149;27331;-75
2022/04/15 02:50:05;;;;;;;3.57;3.27;;;10.00;84.00;;;;;;933191;149;27409;-75
2022/04/15 02:52:32;;;;;;;3.43;3.13;;;10.00;84.20;;;;;;934065;149;27403;-75
2022/04/15 02:54:58;;;;;;;2.77;2.57;;;9.90;84.30;;;;;;931919;149;27382;-75
2022/04/15 02:57:25;;;;;;;3.27;3.07;;;9.90;84.50;;;;;;933877;149;27346;-75
2022/04/15 02:59:51;;;;;;;3.43;3.20;;;9.90;84.80;;;;;;934601;149;28376;-75
2022/04/15 03:02:18;;;;;;;3.33;2.70;;;9.80;84.90;;;;;;934658;149;27311;-75
2022/04/15 03:04:45;;;;;;;3.33;3.03;;;9.80;85.10;;;;;;934856;149;27334;-75
2022/04/15 03:07:11;;;;;;;3.13;2.80;;;9.80;85.20;;;;;;936066;149;27308;-75
2022/04/15 03:09:38;;;;;;;2.97;2.73;;;9.80;85.30;;;;;;934456;149;27380;-75
2022/04/15 03:12:05;;;;;;;3.53;3.23;;;9.80;85.40;;;;;;931884;149;27345;-77
2022/04/15 03:14:31;;;;;;;3.57;3.27;;;9.70;85.60;;;;;;935789;149;27344;-77
2022/04/15 03:16:58;;;;;;;3.23;3.03;;;9.70;85.90;;;;;;934246;149;27330;-77
2022/04/15 03:19:24;;;;;;;4.10;2.90;;;9.70;85.90;;;;;;935895;149;27339;-77
2022/04/15 03:21:51;;;;;;;2.97;2.77;;;9.70;86.10;;;;;;934057;149;27374;-77
2022/04/15 03:24:17;;;;;;;3.03;2.83;;;9.70;86.20;;;;;;933195;149;27407;-77
2022/04/15 03:26:44;;;;;;;3.83;3.53;;;9.60;86.20;;;;;;935063;149;27687;-77
2022/04/15 03:29:11;;;;;;;3.27;3.07;;;9.60;86.40;;;;;;933682;149;27304;-77
2022/04/15 03:31:37;;;;;;;2.83;2.63;;;9.60;86.50;;;;;;932539;149;27319;-77
2022/04/15 03:34:04;;;;;;;2.93;2.73;;;9.60;86.60;;;;;;935344;149;27318;-77
2022/04/15 03:36:31;;;;;;;3.40;3.10;;;9.60;86.80;;;;;;935912;149;27339;-77
2022/04/15 03:38:57;;;;;;;5.67;3.10;;;9.50;86.80;;;;;;937030;149;27363;-77
2022/04/15 03:41:24;;;;;;;3.60;3.30;;;9.50;87.00;;;;;;935475;149;27339;-77
2022/04/15 03:43:50;;;;;;;4.80;3.57;;;9.50;87.10;;;;;;937357;148;27751;-77
2022/04/15 03:46:17;;;;;;;3.63;3.30;;;9.50;88.00;;;;;;940492;148;27797;-77
2022/04/15 03:48:44;;;;;;;3.67;3.17;;;9.40;87.40;;;;;;939499;148;27379;-75
2022/04/15 03:51:11;;;;;;;3.50;3.20;;;9.40;87.50;;;;;;938521;148;27385;-75
2022/04/15 03:53:37;;;;;;;2.80;2.60;;;9.40;87.60;;;;;;942225;148;27342;-75
2022/04/15 03:56:03;;;;;;;3.13;2.83;;;9.40;87.60;;;;;;939351;148;27397;-75
2022/04/15 03:58:30;;;;;;;3.97;3.57;;;9.40;87.80;;;;;;939548;148;27318;-75
2022/04/15 04:00:57;;;;;;;3.90;3.50;;;9.30;87.80;;;;;;938441;148;27411;-75
2022/04/15 04:03:23;;;;;;;4.40;3.23;;;9.30;87.90;;;;;;939880;148;27397;-75
2022/04/15 04:05:49;;;;;;;3.60;3.30;;;9.30;88.00;;;;;;938436;148;27326;-75
2022/04/15 04:08:16;;;;;;;3.50;2.80;;;9.30;88.00;;;;;;941101;148;27441;-75
2022/04/15 04:10:43;;;;;;;3.37;3.03;;;9.30;88.10;;;;;;938195;148;27311;-75
2022/04/15 04:13:09;;;;;;;3.43;3.13;;;9.20;88.20;;;;;;940722;148;27377;-75
2022/04/15 04:15:36;;;;;;;4.53;2.97;;;9.20;88.20;;;;;;938791;148;27326;-75
2022/04/15 04:18:02;;;;;;;3.73;3.40;;;9.20;87.60;;;;;;938392;148;27322;-75
2022/04/15 04:20:30;;;;;;;3.70;3.40;;;9.10;88.40;;;;;;937433;148;27318;-75
2022/04/15 04:22:56;;;;;;;3.70;3.40;;;9.10;88.50;;;;;;938934;148;27376;-75
2022/04/15 04:25:22;;;;;;;3.37;3.07;;;9.10;88.70;;;;;;941333;148;27386;-75
2022/04/15 04:27:49;;;;;;;5.20;3.73;;;9.10;88.90;;;;;;940191;148;27346;-75
2022/04/15 04:30:15;;;;;;;3.63;3.33;;;9.10;88.90;;;;;;937804;148;27331;-75
2022/04/15 04:32:42;;;;;;;3.33;3.03;;;9.10;89.00;;;;;;939215;148;27532;-75
2022/04/15 04:35:08;;;;;;;3.70;3.23;;;9.00;89.20;;;;;;939107;148;27395;-75
2022/04/15 04:37:35;;;;;;;3.40;3.10;;;9.00;89.30;;;;;;940984;148;27352;-75
2022/04/15 04:40:02;;;;;;;3.17;2.97;;;9.00;89.40;;;;;;940856;148;27367;-75
2022/04/15 04:42:28;;;;;;;3.73;3.43;;;9.00;89.70;;;;;;940414;148;27440;-75
2022/04/15 04:44:55;;;;;;;3.87;3.50;;;9.00;89.80;;;;;;939141;148;27498;-77
2022/04/15 04:47:21;;;;;;;3.53;3.23;;;9.00;90.00;;;;;;941182;148;27367;-75
2022/04/15 04:49:48;;;;;;;3.53;3.23;;;9.00;90.10;;;;;;940016;148;27394;-77
2022/04/15 04:52:15;;;;;;;3.87;3.57;;;9.00;90.50;;;;;;937860;148;27480;-77
2022/04/15 04:54:41;;;;;;;3.37;3.13;;;9.00;90.30;;;;;;939286;148;27359;-75
2022/04/15 04:57:08;;;;;;;5.07;4.20;;;9.00;90.40;;;;;;937157;148;27336;-75
2022/04/15 04:59:34;;;;;;;4.60;4.20;;;9.00;90.60;;;;;;937721;148;27314;-75
2022/04/15 05:02:01;;;;;;;4.13;3.73;;;9.10;90.90;;;;;;940234;148;27255;-75
2022/04/15 05:04:27;;;;;;;4.00;3.60;;;9.10;91.20;;;;;;938758;148;27793;-75
2022/04/15 05:06:54;;;;;;;6.57;3.50;;;9.20;91.30;;;;;;942186;148;27366;-75
2022/04/15 05:09:21;;;;;;;5.37;3.90;;;9.30;91.40;;;;;;939475;148;27296;-75
2022/04/15 05:11:47;;;;;;;4.53;4.03;;;9.40;91.40;;;;;;939743;148;27331;-77
2022/04/15 05:14:14;;;;;;;4.10;3.70;;;9.40;91.30;;;;;;941779;148;27319;-77
2022/04/15 05:16:40;;;;;;;4.23;3.83;;;9.50;91.30;;;;;;938039;148;27326;-77
2022/04/15 05:19:07;;;;;;;4.87;4.40;;;9.60;91.20;;;;;;940195;148;27419;-75
2022/04/15 05:21:35;;;;;;;5.60;4.50;;;9.60;91.20;;;;;;941224;148;27646;-75
2022/04/15 05:24:01;;;;;;;5.97;4.70;;;9.70;91.20;;;;;;939583;148;27914;-75
2022/04/15 05:26:29;;;;;;;5.13;4.63;;;9.80;91.60;;;;;;938769;148;27385;-75
2022/04/15 05:28:53;;;;;;;5.30;4.80;;;9.80;91.40;;;;;;939248;148;27352;-75
2022/04/15 05:31:20;;;;;;;5.70;4.77;;;9.90;91.90;;;;;;939229;148;27485;-75
2022/04/15 05:33:46;;;;;;;5.70;5.20;;;10.10;92.80;;;;;;937906;148;27483;-75
2022/04/15 05:36:13;;;;;;;4.57;4.17;;;10.30;93.70;;;;;;939891;148;27374;-75
2022/04/15 05:38:40;;;;;;;5.00;4.40;;;10.60;94.40;;;;;;941011;148;27318;-75
2022/04/15 05:41:06;;;;;;;5.13;4.73;;;11.00;95.10;;;;;;941146;148;27309;-75
2022/04/15 05:43:33;;;;;;;4.93;4.30;;;11.50;95.60;;;;;;939734;148;27411;-75
2022/04/15 05:45:59;;;;;;;3.93;3.63;;;12.00;96.00;;;;;;937606;148;27457;-76
2022/04/15 05:48:26;;;;;;;3.90;3.60;;;12.60;96.40;;;;;;939308;148;27279;-75
2022/04/15 05:50:53;;;;;;;4.43;4.07;;;13.20;95.80;;;;;;941403;148;27357;-75
2022/04/15 05:53:19;;;;;;;3.87;3.57;;;13.80;94.90;;;;;;939353;148;27314;-76
2022/04/15 05:55:46;;;;;;;4.40;4.03;;;14.30;94.10;;;;;;938232;148;27328;-75
2022/04/15 05:58:12;;;;;;;5.10;3.87;;;14.80;93.10;;;;;;939390;148;27345;-76
2022/04/15 06:00:39;;;;;;;3.70;3.40;;;15.30;92.30;;;;;;939436;148;27427;-75
2022/04/15 06:03:07;;;;;;;3.67;3.37;;;15.70;91.70;;;;;;938472;148;27475;-76
2022/04/15 06:05:32;;;;;;;4.90;3.92;;;16.20;91.20;;;;;;937740;148;27441;-76
2022/04/15 06:07:59;;;;;;;4.05;3.65;;;16.60;91.00;;;;;;939250;148;27337;-76
2022/04/15 06:10:25;;;;;;;4.10;3.50;;;17.10;90.80;;;;;;938158;148;27427;-76
2022/04/15 06:13:00;;;;;;;3.90;3.30;;;17.70;90.70;;;;;;939272;148;27444;-76
2022/04/15 06:15:21;;;;;;;3.80;3.50;;;18.30;90.00;;;;;;940700;148;27439;-76
2022/04/15 06:17:48;;;;;;;3.50;3.08;;;18.90;87.50;;;;;;939534;148;27394;-75
2022/04/15 06:20:15;;;;;;;3.42;3.12;;;19.60;85.60;;;;;;938791;148;27711;-76
2022/04/15 06:22:44;;;;;;;3.95;3.55;;;20.20;83.40;;;;;;939943;148;27455;-76
2022/04/15 06:25:10;;;;;;;2.92;2.72;;;20.80;81.70;;;;;;940110;148;27319;-76
2022/04/15 06:27:37;;;;;;;3.85;3.00;;;21.50;79.20;;;;;;941955;148;27344;-76
2022/04/15 06:30:04;;;;;;;3.02;2.72;;;22.20;77.40;;;;;;939384;148;27441;-75
2022/04/15 06:32:30;;;;;;;3.20;3.00;;;22.80;75.30;;;;;;938435;148;27287;-76
2022/04/15 06:34:57;;;;;;;3.12;2.92;;;23.40;73.20;;;;;;938885;148;27476;-76
2022/04/15 06:37:23;;;;;;;3.25;2.85;;;24.10;71.60;;;;;;939134;148;27339;-76
2022/04/15 06:39:51;;;;;;;3.08;2.87;;;24.70;69.60;;;;;;940016;148;27391;-76
2022/04/15 06:42:30;;;;;;;2.87;2.67;;;25.30;67.70;;;;;;941947;148;27334;-76
2022/04/15 06:44:55;;;;;;;2.72;2.55;;;25.80;65.90;;;;;;935528;148;27355;-76
2022/04/15 06:47:22;;;;;;;3.00;2.77;;;26.40;64.70;;;;;;935671;149;28149;-76
2022/04/15 06:49:49;;;;;;;3.15;2.87;;;26.90;63.40;;;;;;933750;149;27342;-76
2022/04/15 06:52:15;;;;;;;3.25;2.87;;;27.30;61.80;;;;;;934093;149;27368;-76
2022/04/15 06:54:42;;;;;;;3.60;3.22;;;27.80;61.00;;;;;;936188;149;27264;-76
2022/04/15 06:57:09;;;;;;;3.77;3.47;;;28.30;59.90;;;;;;935709;149;27345;-76
2022/04/15 07:02:12;;;;;;;4.55;4.15;;;28.80;59.00;;;;;;969672;145;37270;-76
2022/04/15 07:04:38;;;;;;;4.58;4.17;;;29.70;56.60;;;;;;941681;149;27331;-75
2022/04/15 07:07:05;;;;;;;4.67;4.35;;;30.20;56.10;;;;;;939973;149;26339;-75
2022/04/15 07:09:32;;;;;;;4.28;3.87;;;30.60;55.40;;;;;;943202;151;27321;-75
2022/04/15 07:11:58;;;;;;;4.47;4.03;;;31.00;54.70;;;;;;942023;151;27768;-76
2022/04/15 07:14:25;;;;;;;4.55;4.15;;;31.40;54.00;;;;;;943018;149;27277;-76
2022/04/15 07:16:51;;;;;;;3.85;3.45;;;31.80;53.40;;;;;;942043;149;27386;-76
2022/04/15 07:19:18;;;;;;;4.37;4.08;;;32.20;52.60;;;;;;942488;151;27395;-76
2022/04/15 07:21:45;;;;;;;4.20;3.80;;;32.60;51.90;;;;;;942266;149;27490;-76
2022/04/15 07:24:11;;;;;;;4.00;3.70;;;33.00;51.30;;;;;;942237;149;27409;-76
2022/04/15 07:26:38;;;;;;;4.30;3.90;;;33.30;50.60;;;;;;941728;149;27280;-76
2022/04/15 07:29:04;;;;;;;4.80;3.52;;;33.60;49.70;;;;;;941146;149;27331;-76
2022/04/15 07:31:32;;;;;;;5.10;3.47;;;33.90;48.90;;;;;;941696;149;27290;-76
2022/04/15 07:33:58;;;;;;;3.58;3.27;;;34.10;48.30;;;;;;939883;151;27280;-75
2022/04/15 07:39:03;;;;;;;3.87;3.60;;;34.50;47.40;;;;;;942369;149;27427;-76
2022/04/15 07:41:29;;;;;;;3.95;3.65;;;34.70;47.00;;;;;;941525;151;27418;-77
2022/04/15 07:43:56;;;;;;;3.60;3.33;;;34.90;46.10;;;;;;942000;151;27463;-76
2022/04/15 07:46:22;;;;;;;4.90;4.05;;;35.00;45.60;;;;;;941054;149;27394;-76
2022/04/15 07:48:49;;;;;;;4.60;4.20;;;35.20;45.30;;;;;;941697;149;27310;-76
2022/04/15 07:51:15;;;;;;;4.45;4.00;;;35.30;45.10;;;;;;941266;151;27320;-77
2022/04/15 07:53:42;;;;;;;4.70;3.85;;;35.50;45.00;;;;;;941106;151;26234;-77
2022/04/15 07:56:09;;;;;;;4.35;3.95;;;35.80;44.20;;;;;;943253;148;27399;-76
2022/04/15 07:58:35;;;;;;;3.95;3.65;;;36.00;43.60;;;;;;941224;149;26284;-77
2022/04/15 08:01:02;;;;;;;3.67;3.33;;;36.20;43.00;;;;;;941945;148;27414;-77
2022/04/15 08:03:28;;;;;;;3.85;3.55;;;36.30;42.50;;;;;;941160;148;28421;-77
2022/04/15 08:05:55;;;;;;;3.67;3.37;;;36.40;42.10;;;;;;942908;151;26179;-77
2022/04/15 08:08:22;;;;;;;4.15;3.33;;;36.50;41.90;;;;;;941622;151;26234;-77
2022/04/15 08:10:51;;;;;;;4.10;3.80;;;36.60;41.90;;;;;;939369;151;26316;-77
2022/04/15 08:13:18;;;;;;;3.35;3.15;;;36.80;41.50;;;;;;941428;151;26383;-77
2022/04/15 08:15:44;;;;;;;3.60;3.30;;;37.10;41.30;;;;;;943054;151;26258;-77
2022/04/15 08:18:11;;;;;;;3.40;3.10;;;37.30;40.80;;;;;;941680;151;26155;-78
2022/04/15 08:20:37;;;;;;;2.72;2.52;;;37.60;40.30;;;;;;940976;151;26210;-76
2022/04/15 08:23:04;;;;;;;2.72;2.52;;;37.80;38.80;;;;;;941189;149;26222;-77
2022/04/15 08:25:30;;;;;;;2.80;2.60;;;37.90;37.60;;;;;;941586;149;26330;-77
2022/04/15 08:27:57;;;;;;;3.20;2.90;;;37.90;37.60;;;;;;941094;151;26421;-77
2022/04/15 08:30:24;;;;;;;2.85;2.55;;;37.80;37.00;;;;;;941229;149;26294;-77
2022/04/15 08:32:53;;;;;;;2.67;2.47;;;37.70;36.70;;;;;;940331;151;26171;-77
2022/04/15 08:35:19;;;;;;;3.60;2.20;;;37.60;36.60;;;;;;939018;149;27811;-76
2022/04/15 08:37:46;;;;;;;2.58;2.33;;;37.50;35.70;;;;;;942341;149;26311;-77
2022/04/15 08:40:13;;;;;;;2.85;2.65;;;37.30;35.90;;;;;;939318;151;26264;-77
2022/04/15 08:42:42;;;;;;;2.65;2.37;;;37.10;35.60;;;;;;939850;149;26280;-76
2022/04/15 08:45:08;;;;;;;3.35;2.45;;;37.00;36.00;;;;;;941255;149;26294;-76
2022/04/15 08:47:38;;;;;;;2.98;1.95;;;36.90;35.20;;;;;;939764;151;26319;-75
2022/04/15 08:50:05;;;;;;;2.75;2.25;;;36.80;35.50;;;;;;940133;149;26224;-76
2022/04/15 08:52:31;;;;;;;2.72;2.10;;;36.70;35.60;;;;;;941577;149;26253;-77
2022/04/15 08:55:00;;;;;;;2.83;2.22;;;36.70;35.90;;;;;;939147;151;26167;-77
2022/04/15 08:57:24;;;;;;;2.67;2.20;;;36.80;35.70;;;;;;940122;149;26199;-77
2022/04/15 08:59:51;;;;;;;2.75;2.12;;;36.80;34.70;;;;;;940324;151;26243;-77
2022/04/15 09:02:32;;;;;;;2.02;1.87;;;36.80;35.00;;;;;;940259;148;26308;-77
2022/04/15 09:04:58;;;;;;;2.83;1.87;;;36.80;34.70;;;;;;941530;151;26166;-76
2022/04/15 09:07:28;;;;;;;2.12;1.87;;;36.80;34.30;;;;;;943519;149;26242;-77
2022/04/15 09:09:55;;;;;;;1.80;1.70;;;36.80;34.30;;;;;;940169;151;26356;-75
2022/04/15 09:12:21;;;;;;;2.98;1.70;;;36.70;34.20;;;;;;940702;151;26816;-77
2022/04/15 09:14:47;;;;;;;2.22;2.02;;;36.70;34.40;;;;;;942065;151;26280;-76
2022/04/15 09:17:14;;;;;;;2.20;2.00;;;36.70;33.90;;;;;;940711;149;26142;-77
2022/04/15 09:19:42;;;;;;;2.90;2.05;;;36.70;34.30;;;;;;943080;149;26509;-76
2022/04/15 09:22:07;;;;;;;1.72;1.62;;;36.80;34.00;;;;;;942094;151;26273;-76
2022/04/15 09:24:34;;;;;;;1.82;1.65;;;36.80;33.70;;;;;;939998;151;26319;-77
2022/04/15 09:27:03;;;;;;;1.50;1.40;;;36.90;33.70;;;;;;939446;149;27421;-76
2022/04/15 09:29:33;;;;;;;1.60;1.50;;;36.90;33.60;;;;;;942015;151;26254;-76
2022/04/15 09:31:59;;;;;;;1.37;1.27;;;37.00;33.40;;;;;;941705;148;26202;-76
2022/04/15 09:34:26;;;;;;;2.33;1.10;;;37.00;32.80;;;;;;938855;149;26217;-76
2022/04/15 09:36:52;;;;;;;1.10;1.00;;;37.00;32.30;;;;;;941501;149;26249;-77
2022/04/15 09:39:19;;;;;;;1.20;1.10;;;37.00;31.60;;;;;;939975;151;26201;-77
2022/04/15 09:41:49;;;;;;;1.57;0.90;;;36.80;31.60;;;;;;940465;151;26240;-76
2022/04/15 09:44:15;;;;;;;1.40;1.30;;;36.60;31.10;;;;;;938986;151;26301;-76
2022/04/15 09:46:42;;;;;;;2.05;1.05;;;36.30;29.90;;;;;;941789;149;27298;-75
2022/04/15 09:49:08;;;;;;;0.70;0.65;;;35.90;30.40;;;;;;942049;150;27351;-77
2022/04/15 09:51:36;;;;;;;2.08;1.00;;;35.40;30.40;;;;;;940814;149;27806;-77
2022/04/15 09:54:01;;;;;;;1.20;1.10;;;34.90;31.00;;;;;;941910;151;27298;-76
2022/04/15 09:56:28;;;;;;;2.70;1.20;;;34.40;31.00;;;;;;942406;149;27606;-76
2022/04/15 09:58:55;;;;;;;1.40;1.20;;;33.90;31.30;;;;;;940784;151;27352;-76
2022/04/15 10:01:21;;;;;;;1.92;1.20;;;33.40;31.30;;;;;;940887;149;27382;-76
2022/04/15 10:03:48;;;;;;;1.60;1.50;;;32.90;31.30;;;;;;936401;150;27435;-76
2022/04/15 10:06:14;;;;;;;1.55;1.37;;;32.50;31.30;;;;;;933924;150;27664;-76
2022/04/15 10:08:42;;;;;;;2.10;1.20;;;32.00;31.70;;;;;;934234;152;27310;-76
2022/04/15 10:11:08;;;;;;;1.95;1.15;;;31.50;32.00;;;;;;935863;152;27373;-76
2022/04/15 10:13:35;;;;;;;2.00;1.40;;;31.00;32.30;;;;;;936199;150;27369;-75
2022/04/15 10:16:01;;;;;;;1.40;1.30;;;30.50;32.90;;;;;;937659;150;27385;-75
2022/04/15 10:18:27;;;;;;;1.87;1.57;;;30.10;33.20;;;;;;935584;150;27321;-76
2022/04/15 10:20:54;;;;;;;1.40;1.30;;;29.60;33.30;;;;;;934530;152;27311;-76
2022/04/15 10:23:21;;;;;;;2.33;1.90;;;29.20;33.70;;;;;;935522;150;27237;-76
2022/04/15 10:25:47;;;;;;;2.30;1.50;;;28.80;34.10;;;;;;934447;150;27283;-76
2022/04/15 10:28:14;;;;;;;2.27;1.40;;;28.40;34.30;;;;;;935399;152;27347;-76
2022/04/15 10:30:52;;;;;;;1.37;1.27;;;28.00;34.60;;;;;;931942;150;27331;-76
2022/04/15 10:33:29;;;;;;;1.55;1.45;;;27.70;35.00;;;;;;931534;152;27349;-77
2022/04/15 10:35:55;;;;;;;1.47;1.15;;;27.30;35.30;;;;;;934929;149;27307;-75
2022/04/15 10:38:22;;;;;;;1.35;1.17;;;27.10;35.50;;;;;;935932;152;27317;-76
2022/04/15 10:40:48;;;;;;;3.35;1.95;;;26.90;35.90;;;;;;935736;151;27393;-74
2022/04/15 10:43:29;;;;;;;1.40;1.17;;;26.60;35.90;;;;;;935187;151;27312;-76
2022/04/15 10:46:14;;;;;;;2.20;1.47;;;26.40;36.20;;;;;;935968;150;27449;-76
2022/04/15 10:48:40;;;;;;;1.40;1.10;;;26.10;36.30;;;;;;934125;151;27391;-75
2022/04/15 10:51:19;;;;;;;1.12;1.05;;;25.90;37.10;;;;;;935767;151;27270;-76
2022/04/15 10:53:46;;;;;;;1.62;1.47;;;25.70;36.90;;;;;;933584;150;27302;-75
2022/04/15 10:56:13;;;;;;;3.67;1.80;;;25.50;37.20;;;;;;933890;149;27434;-76
2022/04/15 11:01:50;;;;;;;1.95;1.50;;;25.20;37.50;;;;;;934277;150;27404;-76
2022/04/15 11:04:17;;;;;;;1.72;1.20;;;24.90;37.70;;;;;;934402;150;27358;-75
2022/04/15 11:06:43;;;;;;;1.37;1.27;;;24.80;38.00;;;;;;935878;152;27725;-75
2022/04/15 11:09:13;;;;;;;1.75;1.37;;;24.60;38.70;;;;;;934589;151;27306;-75
2022/04/15 11:11:44;;;;;;;1.92;1.32;;;24.50;38.40;;;;;;935667;152;27410;-75
2022/04/15 11:14:13;;;;;;;2.83;1.47;;;24.30;38.50;;;;;;934677;152;27343;-75
2022/04/15 11:16:38;;;;;;;1.42;1.30;;;24.10;38.80;;;;;;935026;150;27344;-75
2022/04/15 11:19:05;;;;;;;1.30;1.20;;;23.90;39.20;;;;;;936178;152;27346;-76
2022/04/15 11:21:37;;;;;;;1.40;1.30;;;23.70;39.40;;;;;;935444;152;27325;-76
2022/04/15 11:24:09;;;;;;;1.90;1.57;;;23.60;39.60;;;;;;933020;151;27250;-76
2022/04/15 11:26:36;;;;;;;1.35;1.25;;;23.40;39.80;;;;;;936045;150;27269;-75
2022/04/15 11:29:02;;;;;;;1.52;1.40;;;23.30;40.20;;;;;;934799;150;27422;-76
2022/04/15 11:31:29;;;;;;;1.42;1.32;;;23.30;40.40;;;;;;935687;150;27351;-75
2022/04/15 11:33:56;;;;;;;1.50;1.40;;;23.20;40.50;;;;;;934362;150;27353;-75
2022/04/15 11:36:22;;;;;;;1.55;1.37;;;23.20;40.70;;;;;;936619;150;27297;-75
2022/04/15 11:38:49;;;;;;;3.90;1.40;;;23.10;40.60;;;;;;935519;152;27278;-75
2022/04/15 11:41:21;;;;;;;2.20;1.60;;;23.00;40.70;;;;;;934810;152;27586;-74
2022/04/15 11:43:55;;;;;;;1.75;1.65;;;22.90;41.00;;;;;;933984;151;27610;-76
2022/04/15 11:46:20;;;;;;;2.02;1.40;;;22.90;41.30;;;;;;935894;152;27294;-75
2022/04/15 11:48:47;;;;;;;1.32;1.22;;;22.80;41.40;;;;;;936277;152;27415;-74
2022/04/15 11:51:13;;;;;;;1.50;1.10;;;22.80;41.40;;;;;;935255;150;28090;-74
2022/04/15 11:53:40;;;;;;;2.45;1.45;;;22.70;41.60;;;;;;935498;150;27414;-73
2022/04/15 11:56:07;;;;;;;1.37;1.27;;;22.70;41.70;;;;;;933956;150;27318;-74
2022/04/15 11:58:33;;;;;;;1.87;1.40;;;22.60;41.80;;;;;;935161;152;27333;-74
2022/04/15 12:01:00;;;;;;;2.08;1.62;;;22.60;41.90;;;;;;934186;150;27286;-74
2022/04/15 12:03:26;;;;;;;1.35;1.25;;;22.60;42.00;;;;;;934679;149;27366;-74
2022/04/15 12:05:53;;;;;;;1.10;1.10;;;22.60;42.10;;;;;;935358;150;27346;-74
2022/04/15 12:08:23;;;;;;;2.85;1.05;;;22.60;42.10;;;;;;934736;152;27309;-74
2022/04/15 12:10:49;;;;;;;1.47;1.37;;;22.60;42.20;;;;;;935455;152;27325;-74
2022/04/15 12:13:16;;;;;;;2.22;1.67;;;22.70;42.30;;;;;;935085;150;27315;-74
2022/04/15 12:15:43;;;;;;;1.50;1.40;;;22.70;42.20;;;;;;935488;150;27805;-74
2022/04/15 12:18:09;;;;;;;1.47;1.37;;;22.70;42.10;;;;;;936356;152;27715;-74
2022/04/15 12:20:35;;;;;;;2.30;1.70;;;22.60;42.00;;;;;;934976;152;27431;-75
2022/04/15 12:23:02;;;;;;;1.07;0.98;;;22.60;42.00;;;;;;935729;152;27394;-74
2022/04/15 12:26:13;;;;;;;1.75;1.20;;;22.60;42.00;;;;;;937219;150;27403;-74
2022/04/15 12:27:58;;;;;;;1.30;1.20;;;22.60;42.00;;;;;;934932;151;27294;-74
2022/04/15 12:30:37;;;;;;;1.62;1.35;;;22.60;42.10;;;;;;932346;152;27766;-74
2022/04/15 12:33:10;;;;;;;1.47;1.37;;;22.60;42.20;;;;;;935489;149;27466;-75
2022/04/15 12:35:35;;;;;;;1.60;1.50;;;22.70;42.10;;;;;;932320;149;27391;-74
2022/04/15 12:38:02;;;;;;;1.20;1.10;;;22.70;42.00;;;;;;935890;150;27298;-74
2022/04/15 12:40:32;;;;;;;1.60;1.50;;;22.70;42.10;;;;;;934942;150;27375;-74
2022/04/15 12:43:13;;;;;;;1.75;1.30;;;22.70;42.10;;;;;;935214;152;27474;-74
2022/04/15 12:45:49;;;;;;;1.25;1.10;;;22.70;42.10;;;;;;934869;150;27314;-74
2022/04/15 12:48:15;;;;;;;1.47;1.37;;;22.70;42.10;;;;;;935625;152;28386;-74
2022/04/15 12:50:42;;;;;;;1.80;1.60;;;22.70;41.90;;;;;;935613;152;27362;-74
2022/04/15 12:53:17;;;;;;;1.62;1.52;;;22.70;41.90;;;;;;934816;150;27419;-74
2022/04/15 12:55:43;;;;;;;2.22;1.60;;;22.70;42.00;;;;;;934893;150;27329;-74